Orondo, Washington
Current Conditions -  °F | °C
As of 4:55 PM on Monday 26 Jan 2015 (Local Time) from KEAT Reporting Station
Clear Clear  
Wind Chill: 37°   Ceiling: Unl
Heat Index: 37°   Visibility: 10mi
Dew Point: 33°   Wind: 3mph
Humidity: 86%   Direction: 330°NNW
Pressure: 30.02"   Gusts: NA
Location:  47.63°N, 120.22°W
Report Text: KEAT 270055Z AUTO 33003KT 10SM CLR 03/01 A3002 RMK AO2 SLP174 T00280006
Loading
Personal Weather Stations






























Interactive Weather Map New forecast layout! Learn more

10-Day Weather Forecast

Advertisements
Track Severe Weather on mobile